Time;durP1;ratioP1;P1;durP2;ratioP2;P2;SDS_P1;SDS_P2;PMS_P1;PMS_P2;Temp;Humidity;BMP_temperature;BMP_pressure;BME280_temperature;BME280_humidity;BME280_pressure;Samples;Min_cycle;Max_cycle;Signal;HPM_P1;HPM_P2
2022/04/04 00:01:22;;;;;;;39.38;23.80;;;-3.60;99.90;;;;;;4985455;28;20106;-83
2022/04/04 00:04:14;;;;;;;48.22;23.27;;;-3.70;99.90;;;;;;4976884;28;20113;-82
2022/04/04 00:07:02;;;;;;;42.42;24.10;;;-3.70;99.90;;;;;;4984659;28;20062;-82
2022/04/04 00:09:50;;;;;;;39.30;23.75;;;-3.80;99.90;;;;;;4979445;28;20135;-82
2022/04/04 00:12:40;;;;;;;46.75;24.02;;;-3.90;99.90;;;;;;4977353;28;20488;-80
2022/04/04 00:15:28;;;;;;;44.03;25.85;;;-3.90;99.90;;;;;;4981388;28;20046;-82
2022/04/04 00:18:17;;;;;;;47.80;26.80;;;-3.80;99.90;;;;;;4985076;28;20050;-83
2022/04/04 00:21:04;;;;;;;47.88;25.80;;;-3.60;99.90;;;;;;4983545;28;20075;-82
2022/04/04 00:23:54;;;;;;;47.25;26.20;;;-3.60;99.90;;;;;;4986618;28;20082;-81
2022/04/04 00:26:42;;;;;;;51.15;28.50;;;-3.60;99.90;;;;;;4980734;28;20051;-79
2022/04/04 00:29:30;;;;;;;54.17;28.88;;;-3.70;99.90;;;;;;4976002;28;20093;-80
2022/04/04 00:32:17;;;;;;;48.03;26.02;;;-3.80;99.90;;;;;;4971793;28;20047;-81
2022/04/04 00:35:04;;;;;;;46.78;27.00;;;-3.90;99.90;;;;;;4973975;28;20046;-81
2022/04/04 00:38:03;;;;;;;47.53;26.92;;;-4.00;99.90;;;;;;4968356;28;20198;-79
2022/04/04 00:40:50;;;;;;;49.65;26.65;;;-4.10;99.90;;;;;;4974876;28;20047;-80
2022/04/04 00:43:37;;;;;;;49.85;27.10;;;-4.20;99.90;;;;;;4981524;28;20088;-80
2022/04/04 00:46:25;;;;;;;48.75;25.15;;;-4.40;99.90;;;;;;4983530;28;20111;-81
2022/04/04 00:49:12;;;;;;;49.67;26.90;;;-4.50;99.90;;;;;;4987504;28;20078;-80
2022/04/04 00:52:02;;;;;;;48.08;26.52;;;-4.70;99.90;;;;;;4985928;28;20105;-81
2022/04/04 00:54:49;;;;;;;51.97;27.95;;;-4.70;99.90;;;;;;4973436;28;20445;-80
2022/04/04 00:57:44;;;;;;;49.25;26.85;;;-4.70;99.90;;;;;;4994440;28;20050;-81
2022/04/04 01:00:32;;;;;;;59.67;30.33;;;-4.70;99.90;;;;;;4980597;28;20073;-82
2022/04/04 01:03:21;;;;;;;55.22;29.67;;;-4.50;99.90;;;;;;4995312;28;20122;-82
2022/04/04 01:06:11;;;;;;;51.45;29.15;;;-4.20;99.90;;;;;;4993602;28;20057;-81
2022/04/04 01:08:58;;;;;;;49.47;27.33;;;-4.10;99.90;;;;;;4977124;28;20046;-81
2022/04/04 01:12:06;;;;;;;48.08;27.08;;;-4.00;99.90;;;;;;4986692;28;20162;-80
2022/04/04 01:14:53;;;;;;;47.88;26.30;;;-4.10;99.90;;;;;;4963338;28;20047;-81
2022/04/04 01:17:40;;;;;;;43.97;26.70;;;-4.10;99.90;;;;;;4977557;28;20055;-79
2022/04/04 01:20:29;;;;;;;48.05;26.50;;;-4.10;99.90;;;;;;4977557;28;20345;-80
2022/04/04 01:23:23;;;;;;;51.63;26.80;;;-4.20;99.90;;;;;;4966360;28;20038;-80
2022/04/04 01:26:12;;;;;;;50.92;27.42;;;-4.20;99.90;;;;;;4953331;28;20105;-81
2022/04/04 01:28:59;;;;;;;56.55;28.50;;;-4.20;99.90;;;;;;4971526;28;20066;-78
2022/04/04 01:31:47;;;;;;;49.13;26.63;;;-4.30;99.90;;;;;;4960498;28;20055;-79
2022/04/04 01:34:38;;;;;;;53.17;27.08;;;-4.30;99.90;;;;;;4975374;28;20077;-80
2022/04/04 01:37:28;;;;;;;47.45;26.55;;;-4.40;99.90;;;;;;4975572;28;20341;-79
2022/04/04 01:40:15;;;;;;;49.10;27.08;;;-4.50;99.90;;;;;;4973972;28;20329;-79
2022/04/04 01:43:04;;;;;;;55.20;26.30;;;-4.50;99.90;;;;;;4975193;28;20087;-79
2022/04/04 01:48:59;;;;;;;51.60;27.13;;;-4.50;99.90;;;;;;4972131;28;20047;-80
2022/04/04 01:51:49;;;;;;;49.15;27.30;;;-4.40;99.90;;;;;;4974985;28;20081;-79
2022/04/04 01:54:36;;;;;;;48.25;27.52;;;-4.20;99.90;;;;;;4962616;28;20042;-81
2022/04/04 01:57:23;;;;;;;51.28;25.42;;;-4.10;99.90;;;;;;4974818;28;20042;-81
2022/04/04 02:00:14;;;;;;;43.67;24.58;;;-4.20;99.90;;;;;;4972948;28;20070;-80
2022/04/04 02:03:03;;;;;;;45.33;24.88;;;-4.40;99.90;;;;;;4974455;28;20061;-82
2022/04/04 02:05:51;;;;;;;55.85;25.05;;;-4.50;99.90;;;;;;4975079;28;20058;-81
2022/04/04 02:08:44;;;;;;;47.15;24.92;;;-4.50;99.90;;;;;;4972008;28;20159;-82
2022/04/04 02:11:34;;;;;;;;;;;-4.60;99.90;;;;;;4976458;28;20065;-81
2022/04/04 02:14:21;;;;;;;43.67;22.67;;;-4.60;99.90;;;;;;4971501;28;20352;-80
2022/04/04 02:17:09;;;;;;;42.38;23.00;;;-4.50;99.90;;;;;;4972233;28;20499;-81
2022/04/04 02:19:56;;;;;;;45.58;24.23;;;-4.50;99.90;;;;;;4974452;28;20113;-80
2022/04/04 02:22:48;;;;;;;47.28;24.00;;;-4.60;99.90;;;;;;4966747;28;20051;-80
2022/04/04 02:25:36;;;;;;;44.65;23.65;;;-4.70;99.90;;;;;;4973247;28;20055;-80
2022/04/04 02:28:28;;;;;;;48.60;24.75;;;-4.70;99.90;;;;;;4971519;28;20054;-79
2022/04/04 02:31:16;;;;;;;44.83;23.80;;;-4.70;99.90;;;;;;4969470;28;20054;-80
2022/04/04 02:34:03;;;;;;;43.38;23.20;;;-4.60;99.90;;;;;;4961887;28;20053;-79
2022/04/04 02:36:52;;;;;;;42.70;23.00;;;-4.50;99.90;;;;;;4963012;28;20061;-82
2022/04/04 02:39:40;;;;;;;42.53;22.58;;;-4.50;99.90;;;;;;4964946;28;20072;-79
2022/04/04 02:42:27;;;;;;;42.78;22.90;;;-4.60;99.90;;;;;;4975431;28;20420;-80
2022/04/04 02:45:15;;;;;;;37.60;21.20;;;-4.80;99.90;;;;;;4968989;28;20066;-79
2022/04/04 02:48:05;;;;;;;36.88;21.05;;;-4.80;99.90;;;;;;4962270;28;20039;-82
2022/04/04 02:50:53;;;;;;;43.35;23.33;;;-4.80;99.90;;;;;;4975645;28;20169;-80
2022/04/04 02:53:43;;;;;;;45.13;22.83;;;-4.80;99.90;;;;;;4976669;28;20055;-79
2022/04/04 02:56:30;;;;;;;40.97;23.17;;;-4.80;99.90;;;;;;4963176;28;20050;-80
2022/04/04 02:59:17;;;;;;;36.95;21.60;;;-4.60;99.90;;;;;;4967365;28;20415;-79
2022/04/04 03:02:08;;;;;;;34.15;20.67;;;-4.60;99.90;;;;;;4955794;28;20059;-80
2022/04/04 03:04:58;;;;;;;37.30;20.85;;;-4.50;99.90;;;;;;4951322;28;20137;-79
2022/04/04 03:07:45;;;;;;;41.47;20.65;;;-4.50;99.90;;;;;;4969844;28;20094;-80
2022/04/04 03:10:35;;;;;;;36.50;21.08;;;-4.50;99.90;;;;;;4980670;28;20066;-81
2022/04/04 03:13:29;;;;;;;39.15;22.23;;;-4.50;99.90;;;;;;4968682;28;20061;-81
2022/04/04 03:16:16;;;;;;;36.28;21.52;;;-4.50;99.90;;;;;;4966253;28;20102;-81
2022/04/04 03:19:06;;;;;;;36.65;21.17;;;-4.70;99.90;;;;;;4972969;28;20054;-81
2022/04/04 03:21:55;;;;;;;35.13;20.10;;;-4.70;99.90;;;;;;4976455;28;20502;-79
2022/04/04 03:24:44;;;;;;;40.83;20.42;;;-4.80;99.90;;;;;;4976688;28;20062;-80
2022/04/04 03:27:31;;;;;;;35.40;20.17;;;-4.90;99.90;;;;;;4972628;28;20054;-79
2022/04/04 03:30:21;;;;;;;35.38;20.23;;;-4.80;99.90;;;;;;4967309;28;20066;-79
2022/04/04 03:33:12;;;;;;;37.45;22.20;;;-4.80;99.90;;;;;;4977174;28;20148;-81
2022/04/04 03:36:02;;;;;;;44.33;22.17;;;-4.70;99.90;;;;;;4977044;28;20098;-79
2022/04/04 03:38:52;;;;;;;36.80;21.02;;;-4.70;99.90;;;;;;4959314;28;20137;-78
2022/04/04 03:41:47;;;;;;;41.33;22.95;;;-4.70;99.90;;;;;;4971696;28;20119;-80
2022/04/04 03:44:34;;;;;;;;;;;-4.80;99.90;;;;;;4982415;28;20050;-78
2022/04/04 03:47:22;;;;;;;39.47;21.70;;;-4.80;99.90;;;;;;4972975;28;19926;-81
2022/04/04 03:50:20;;;;;;;39.33;21.92;;;-4.80;99.90;;;;;;4965999;28;20082;-81
2022/04/04 03:53:07;;;;;;;39.10;21.15;;;-4.80;99.90;;;;;;4967494;28;20066;-79
2022/04/04 03:55:58;;;;;;;39.58;22.33;;;-4.90;99.90;;;;;;4981649;28;20086;-81
2022/04/04 03:58:46;;;;;;;36.72;22.33;;;-4.90;99.90;;;;;;4977216;28;20113;-80
2022/04/04 04:01:34;;;;;;;38.55;20.40;;;-5.00;99.90;;;;;;4978085;28;20105;-79
2022/04/04 04:04:21;;;;;;;39.65;23.35;;;-5.00;99.90;;;;;;4982075;28;20050;-80
2022/04/04 04:07:15;;;;;;;41.20;22.48;;;-5.00;99.90;;;;;;4981863;28;20058;-80
2022/04/04 04:10:06;;;;;;;37.05;21.63;;;-5.00;99.90;;;;;;4977003;28;20051;-80
2022/04/04 04:12:53;;;;;;;38.15;22.27;;;-5.20;99.90;;;;;;4970798;28;20047;-79
2022/04/04 04:15:42;;;;;;;42.83;21.48;;;-5.30;99.90;;;;;;4968959;28;20081;-78
2022/04/04 04:18:31;;;;;;;38.80;21.30;;;-5.30;99.90;;;;;;4979759;28;20464;-78
2022/04/04 04:21:19;;;;;;;46.63;23.02;;;-5.40;99.90;;;;;;4968641;28;20057;-79
2022/04/04 04:24:07;;;;;;;44.28;24.00;;;-5.50;99.90;;;;;;4984917;28;20440;-80
2022/04/04 04:26:56;;;;;;;46.05;24.50;;;-5.40;99.90;;;;;;4991543;28;20069;-81
2022/04/04 04:29:44;;;;;;;44.22;22.95;;;-5.40;99.90;;;;;;4987306;28;20047;-80
2022/04/04 04:32:33;;;;;;;47.40;25.13;;;-5.30;99.90;;;;;;4997331;28;20039;-78
2022/04/04 04:35:21;;;;;;;49.20;24.98;;;-5.30;99.90;;;;;;4992294;28;20047;-79
2022/04/04 04:38:10;;;;;;;41.70;23.02;;;-5.30;99.90;;;;;;4983024;28;20047;-79
2022/04/04 04:41:03;;;;;;;43.03;23.55;;;-5.30;99.90;;;;;;4998324;28;20059;-79
2022/04/04 04:43:57;;;;;;;44.65;22.67;;;-5.40;99.90;;;;;;4975666;28;20051;-79
2022/04/04 04:46:48;;;;;;;39.20;21.65;;;-5.40;99.90;;;;;;4985150;28;20057;-80
2022/04/04 04:49:38;;;;;;;44.15;22.35;;;-5.40;99.90;;;;;;4971330;28;20066;-79
2022/04/04 04:52:28;;;;;;;41.13;20.80;;;-5.30;99.90;;;;;;4968943;28;20440;-78
2022/04/04 04:55:18;;;;;;;37.25;20.25;;;-5.20;99.90;;;;;;4974525;28;20154;-77
2022/04/04 04:58:05;;;;;;;38.65;19.08;;;-5.10;99.90;;;;;;4975050;28;20043;-79
2022/04/04 05:00:55;;;;;;;37.22;19.92;;;-5.00;99.90;;;;;;4966354;28;20058;-78
2022/04/04 05:03:42;;;;;;;35.25;19.92;;;-5.00;99.90;;;;;;4971430;28;20042;-79
2022/04/04 05:06:31;;;;;;;40.85;20.48;;;-5.10;99.90;;;;;;4955272;28;20348;-78
2022/04/04 05:09:21;;;;;;;34.13;19.05;;;-5.10;99.90;;;;;;4955131;28;20066;-78
2022/04/04 05:12:11;;;;;;;36.42;18.52;;;-5.10;99.90;;;;;;4972516;28;20054;-80
2022/04/04 05:15:08;;;;;;;41.40;21.63;;;-5.00;99.90;;;;;;4973872;28;20049;-78
2022/04/04 05:17:59;;;;;;;34.45;18.45;;;-5.00;99.90;;;;;;4961376;28;20053;-79
2022/04/04 05:20:47;;;;;;;34.78;19.63;;;-5.00;99.50;;;;;;4964406;28;20376;-80
2022/04/04 05:23:34;;;;;;;35.42;19.27;;;-4.90;98.90;;;;;;4975028;28;20063;-79
2022/04/04 05:26:30;;;;;;;40.90;20.15;;;-4.90;99.00;;;;;;4975125;28;20065;-78
2022/04/04 05:29:17;;;;;;;38.22;20.52;;;-4.80;99.30;;;;;;4973312;28;20094;-77
2022/04/04 05:32:06;;;;;;;36.28;20.33;;;-4.70;99.90;;;;;;4958309;28;20437;-79
2022/04/04 05:34:53;;;;;;;36.55;19.58;;;-4.60;99.80;;;;;;4960964;28;20141;-81
2022/04/04 05:37:41;;;;;;;37.40;21.63;;;-4.60;99.30;;;;;;4962923;28;20047;-80
2022/04/04 05:40:31;;;;;;;42.35;23.05;;;-4.50;98.60;;;;;;4960265;28;20057;-81
2022/04/04 05:43:18;;;;;;;36.40;21.42;;;-4.50;97.90;;;;;;4958964;28;20058;-81
2022/04/04 05:46:07;;;;;;;42.00;22.05;;;-4.40;97.70;;;;;;4969076;28;20047;-78
2022/04/04 05:48:56;;;;;;;35.45;20.02;;;-4.40;97.80;;;;;;4969249;28;20047;-81
2022/04/04 05:51:57;;;;;;;41.10;22.73;;;-4.30;97.50;;;;;;4945665;28;20050;-80
2022/04/04 05:59:34;;;;;;;35.85;20.25;;;-4.10;96.40;;;;;;4960029;28;20071;-80
2022/04/04 06:02:56;;;;;;;37.53;21.08;;;-4.00;94.90;;;;;;4969108;28;20058;-80
2022/04/04 06:06:08;;;;;;;36.40;21.60;;;-3.90;93.10;;;;;;4955608;28;21246;-79
2022/04/04 06:10:18;;;;;;;32.50;19.20;;;-3.80;91.20;;;;;;4912935;29;20044;-79
2022/04/04 06:13:05;;;;;;;38.30;20.35;;;-3.70;88.20;;;;;;4859582;29;20204;-78
2022/04/04 06:15:56;;;;;;;35.53;18.95;;;-3.60;85.30;;;;;;4870774;29;20076;-81
2022/04/04 06:18:44;;;;;;;30.35;19.08;;;-3.50;80.70;;;;;;4933561;29;20234;-82
2022/04/04 06:21:31;;;;;;;32.03;19.55;;;-3.40;78.00;;;;;;4928196;29;20058;-80
2022/04/04 06:24:24;;;;;;;32.92;19.13;;;-3.20;73.30;;;;;;4942179;29;20074;-80
2022/04/04 06:27:11;;;;;;;23.80;14.20;;;-3.20;62.90;;;;;;4931117;29;20162;-81
2022/04/04 06:29:59;;;;;;;34.38;18.77;;;-3.10;51.90;;;;;;4949718;28;20051;-81
2022/04/04 06:32:49;;;;;;;27.65;17.80;;;-2.90;64.90;;;;;;4942576;29;20090;-82
2022/04/04 06:35:36;;;;;;;27.30;17.23;;;-2.70;34.60;;;;;;4944006;29;20059;-81
2022/04/04 06:38:24;;;;;;;31.73;16.52;;;-2.60;25.40;;;;;;4950233;29;20051;-82
2022/04/04 06:41:18;;;;;;;27.95;16.05;;;-2.40;22.70;;;;;;4942991;29;20043;-80
2022/04/04 06:44:06;;;;;;;25.50;15.45;;;-2.20;5.60;;;;;;4954516;29;20117;-80
2022/04/04 06:46:56;;;;;;;23.45;15.43;;;-2.00;1.00;;;;;;4987677;28;20074;-81
2022/04/04 06:49:45;;;;;;;22.48;14.57;;;-1.70;1.00;;;;;;4984325;28;20049;-80
2022/04/04 06:52:35;;;;;;;19.58;12.02;;;-1.50;1.00;;;;;;4980466;28;20066;-82
2022/04/04 06:55:27;;;;;;;20.90;12.95;;;-1.30;99.90;;;;;;4977413;28;20054;-81
2022/04/04 06:58:18;;;;;;;24.55;12.55;;;-1.30;99.90;;;;;;4964244;28;20535;-82
2022/04/04 07:01:09;;;;;;;19.88;12.68;;;-1.20;99.90;;;;;;4976255;28;20043;-81
2022/04/04 07:03:57;;;;;;;19.13;12.02;;;-1.00;99.90;;;;;;4975913;28;20050;-83
2022/04/04 07:06:52;;;;;;;20.20;12.40;;;-0.90;99.90;;;;;;4964230;28;20039;-83
2022/04/04 07:09:39;;;;;;;20.60;12.73;;;-0.50;99.90;;;;;;4954942;28;20046;-81
2022/04/04 07:12:27;;;;;;;19.27;11.85;;;-0.30;99.90;;;;;;4958139;28;20742;-81
2022/04/04 07:15:15;;;;;;;15.60;11.13;;;-0.20;1.00;;;;;;4972911;28;20124;-83
2022/04/04 07:18:10;;;;;;;20.85;12.65;;;0.00;99.90;;;;;;4977109;28;20046;-84
2022/04/04 07:21:00;;;;;;;16.10;11.48;;;0.20;1.00;;;;;;4949566;28;20061;-83
2022/04/04 07:23:51;;;;;;;17.10;10.57;;;0.30;90.60;;;;;;4975808;28;20046;-83
2022/04/04 07:26:40;;;;;;;16.20;10.73;;;0.70;99.90;;;;;;4984612;28;20042;-83
2022/04/04 07:29:27;;;;;;;13.93;9.68;;;1.00;1.00;;;;;;4980006;28;20407;-83
2022/04/04 07:32:15;;;;;;;12.95;9.35;;;1.30;99.90;;;;;;4978714;28;20050;-85
2022/04/04 07:35:04;;;;;;;15.23;9.27;;;1.50;78.30;;;;;;4960357;28;20043;-83
2022/04/04 07:37:52;;;;;;;18.55;10.63;;;1.60;32.10;;;;;;4967480;28;20061;-84
2022/04/04 07:40:43;;;;;;;14.40;9.52;;;2.00;99.90;;;;;;4985838;28;20034;-86
2022/04/04 07:43:30;;;;;;;15.77;9.50;;;2.10;99.90;;;;;;4983029;28;20106;-87
2022/04/04 07:46:21;;;;;;;13.13;9.40;;;1.80;47.80;;;;;;4984450;28;20046;-85
2022/04/04 07:49:12;;;;;;;16.83;9.73;;;1.90;28.50;;;;;;4985754;28;20047;-86
2022/04/04 07:52:02;;;;;;;16.58;9.40;;;2.00;9.80;;;;;;4964920;28;20046;-86
2022/04/04 07:54:53;;;;;;;18.75;9.00;;;2.20;8.40;;;;;;4969029;28;20047;-85
2022/04/04 07:57:42;;;;;;;14.70;9.48;;;2.60;1.00;;;;;;4972099;28;20061;-82
2022/04/04 08:00:59;;;;;;;14.93;8.93;;;3.20;1.00;;;;;;4974577;28;20078;-87
2022/04/04 08:04:24;;;;;;;12.65;9.65;;;3.50;99.90;;;;;;4985602;28;20138;-84
2022/04/04 08:07:29;;;;;;;13.45;8.65;;;3.50;99.90;;;;;;4986868;28;20074;-84
2022/04/04 08:10:22;;;;;;;13.18;9.00;;;3.90;99.90;;;;;;4957777;28;20047;-84
2022/04/04 08:13:21;;;;;;;13.50;8.52;;;4.40;42.60;;;;;;4980330;28;20217;-83
2022/04/04 08:20:17;;;;;;;10.38;7.90;;;4.80;1.00;;;;;;4978070;28;20026;-83
2022/04/04 08:25:53;;;;;;;11.80;8.88;;;4.70;99.90;;;;;;5794151;23;20053;-84
2022/04/04 08:28:42;;;;;;;11.98;8.32;;;4.90;99.90;;;;;;4997240;28;20421;-83
2022/04/04 08:31:33;;;;;;;11.48;8.40;;;4.10;99.90;;;;;;5005138;28;20125;-84
2022/04/04 08:34:28;;;;;;;13.18;9.73;;;4.20;99.90;;;;;;4995596;28;20050;-83
2022/04/04 08:37:19;;;;;;;11.55;7.90;;;4.40;99.90;;;;;;5006551;28;20160;-84
2022/04/04 08:40:11;;;;;;;10.77;8.05;;;4.60;99.90;;;;;;5009809;28;20042;-85
2022/04/04 08:43:04;;;;;;;11.98;9.30;;;4.50;99.90;;;;;;4988545;28;20049;-84
2022/04/04 08:45:58;;;;;;;14.52;9.43;;;4.40;99.90;;;;;;5002342;28;20096;-83
2022/04/04 08:48:46;;;;;;;13.25;8.80;;;4.40;99.90;;;;;;4996060;28;20316;-83
2022/04/04 08:51:36;;;;;;;12.63;8.70;;;4.50;99.90;;;;;;4987782;28;20141;-83
2022/04/04 08:54:24;;;;;;;18.95;8.77;;;4.80;99.90;;;;;;4992330;28;20110;-81
2022/04/04 08:57:36;;;;;;;14.23;9.50;;;5.40;99.90;;;;;;4994996;28;20509;-80
2022/04/04 09:00:25;;;;;;;14.10;9.38;;;5.50;99.90;;;;;;4994492;28;20056;-83
2022/04/04 09:03:20;;;;;;;15.20;8.50;;;5.40;99.90;;;;;;4993318;28;20072;-84
2022/04/04 09:06:10;;;;;;;12.95;8.57;;;5.10;99.90;;;;;;4995430;28;20182;-85
2022/04/04 09:08:58;;;;;;;15.10;10.00;;;5.20;99.90;;;;;;4983754;28;20050;-83
2022/04/04 09:12:07;;;;;;;13.32;8.93;;;5.00;99.90;;;;;;4993792;28;20042;-85
2022/04/04 09:15:01;;;;;;;12.35;9.38;;;5.60;99.90;;;;;;4995184;28;20046;-87
2022/04/04 09:17:55;;;;;;;12.05;8.85;;;5.70;99.90;;;;;;4965795;28;20108;-82
2022/04/04 09:20:51;;;;;;;11.55;9.02;;;5.50;99.90;;;;;;4997346;28;20065;-86
2022/04/04 09:23:46;;;;;;;10.63;8.07;;;5.60;99.90;;;;;;4985449;28;20149;-83
2022/04/04 09:26:41;;;;;;;10.30;8.20;;;6.10;99.90;;;;;;4997384;28;20038;-83
2022/04/04 09:29:35;;;;;;;10.35;8.05;;;6.10;99.90;;;;;;4976964;28;20070;-85
2022/04/04 09:32:38;;;;;;;10.40;7.70;;;6.30;99.90;;;;;;4994162;28;20321;-84
2022/04/04 09:35:29;;;;;;;15.38;9.93;;;6.80;99.90;;;;;;4999086;28;20054;-86
2022/04/04 09:38:17;;;;;;;15.38;9.15;;;6.90;99.90;;;;;;4992004;28;20060;-83
2022/04/04 09:41:22;;;;;;;10.07;8.23;;;6.40;99.90;;;;;;4979938;28;20037;-85
2022/04/04 09:44:11;;;;;;;9.32;7.63;;;7.00;99.90;;;;;;4992011;28;20038;-86
2022/04/04 09:46:59;;;;;;;10.45;7.95;;;6.80;99.90;;;;;;4990614;28;20046;-86
2022/04/04 09:49:58;;;;;;;12.05;7.70;;;6.70;99.90;;;;;;4980920;28;20053;-85
2022/04/04 09:53:02;;;;;;;12.20;8.25;;;6.70;99.90;;;;;;4981641;28;20047;-85
2022/04/04 09:56:00;;;;;;;10.63;7.68;;;7.70;99.90;;;;;;4995932;28;20046;-86
2022/04/04 09:58:50;;;;;;;10.43;7.40;;;7.80;99.90;;;;;;5000287;28;20093;-87
2022/04/04 10:01:43;;;;;;;11.23;8.45;;;6.90;99.90;;;;;;4975005;28;20054;-87
2022/04/04 10:04:36;;;;;;;10.57;7.97;;;6.80;94.70;;;;;;4981677;28;20065;-87
2022/04/04 10:07:28;;;;;;;9.85;7.53;;;7.00;95.80;;;;;;4976505;28;20046;-84
2022/04/04 10:10:53;;;;;;;;;;;;;;;;;;;;;
2022/04/04 10:14:05;;;;;;;11.27;8.05;;;7.60;99.90;;;;;;4993008;28;20073;-85
2022/04/04 10:17:17;;;;;;;9.98;7.75;;;7.00;99.90;;;;;;4994559;28;20064;-85
2022/04/04 10:20:10;;;;;;;11.40;8.07;;;7.20;95.60;;;;;;4978782;28;20050;-85
2022/04/04 10:23:03;;;;;;;9.02;7.43;;;7.80;99.80;;;;;;5010305;28;20407;-83
2022/04/04 10:25:52;;;;;;;9.52;7.35;;;7.60;93.80;;;;;;5017094;28;20082;-86
2022/04/04 10:28:44;;;;;;;7.90;6.85;;;7.30;86.80;;;;;;4997995;28;20057;-86
2022/04/04 10:31:52;;;;;;;7.20;6.20;;;7.70;84.20;;;;;;5001720;28;20414;-86
2022/04/04 10:34:44;;;;;;;7.38;6.60;;;7.30;91.20;;;;;;5000027;28;20185;-85
2022/04/04 10:37:42;;;;;;;9.07;6.70;;;7.30;83.20;;;;;;5047606;23;20050;-86
2022/04/04 10:40:35;;;;;;;8.32;7.10;;;7.50;75.50;;;;;;4982361;28;20078;-85
2022/04/04 10:43:23;;;;;;;8.18;6.55;;;7.60;64.50;;;;;;4962574;28;20039;-86
2022/04/04 10:46:12;;;;;;;8.90;6.47;;;7.40;60.00;;;;;;4987888;28;20053;-85
2022/04/04 10:49:06;;;;;;;7.55;6.05;;;7.70;73.50;;;;;;4994201;28;20038;-85
2022/04/04 10:51:57;;;;;;;9.57;6.10;;;8.00;65.40;;;;;;4981278;28;20050;-85
2022/04/04 10:54:44;;;;;;;9.50;6.47;;;8.10;48.60;;;;;;4996344;28;20050;-84
2022/04/04 10:57:43;;;;;;;8.65;5.80;;;7.60;45.60;;;;;;4982692;28;20114;-86
2022/04/04 11:00:35;;;;;;;9.27;6.60;;;8.00;45.00;;;;;;4994363;28;20039;-86
2022/04/04 11:03:30;;;;;;;11.38;4.97;;;7.80;44.70;;;;;;4994223;28;20050;-85
2022/04/04 11:09:26;;;;;;;6.88;5.85;;;8.10;45.70;;;;;;4978301;28;20039;-86
2022/04/04 11:12:22;;;;;;;11.35;6.00;;;8.40;43.40;;;;;;4970273;28;20047;-87
2022/04/04 11:15:09;;;;;;;6.75;6.03;;;8.00;46.00;;;;;;4971201;28;20050;-85
2022/04/04 11:18:03;;;;;;;9.45;6.97;;;7.90;44.60;;;;;;4983791;28;20146;-88
2022/04/04 11:20:59;;;;;;;8.77;6.53;;;8.80;56.50;;;;;;4968813;28;20042;-87
2022/04/04 11:23:47;;;;;;;10.55;6.40;;;7.80;35.00;;;;;;4986561;28;20070;-85
2022/04/04 11:26:35;;;;;;;9.13;6.47;;;7.80;50.20;;;;;;4981588;28;20039;-86
2022/04/04 11:29:25;;;;;;;7.85;5.95;;;8.00;38.80;;;;;;4985594;28;20086;-87
2022/04/04 11:32:19;;;;;;;6.70;5.78;;;7.90;40.90;;;;;;4985334;28;20063;-87
2022/04/04 11:35:22;;;;;;;7.53;5.78;;;8.20;42.50;;;;;;4966334;28;20043;-85
2022/04/04 11:38:12;;;;;;;;;;;10.10;49.20;;;;;;4984730;28;20081;-83
2022/04/04 11:41:11;;;;;;;7.60;5.78;;;9.30;66.10;;;;;;4981493;28;19926;-87
2022/04/04 11:43:59;;;;;;;7.82;5.70;;;9.30;55.10;;;;;;4981570;28;20149;-87
2022/04/04 11:47:04;;;;;;;7.38;5.60;;;9.30;51.70;;;;;;4981420;28;20046;-84
2022/04/04 11:49:58;;;;;;;8.32;5.70;;;8.40;52.40;;;;;;4982367;28;20061;-84
2022/04/04 11:52:54;;;;;;;7.05;5.35;;;8.10;52.00;;;;;;4981300;28;20046;-84
2022/04/04 11:55:45;;;;;;;8.73;5.80;;;9.10;58.90;;;;;;4961821;28;20102;-85
2022/04/04 11:58:37;;;;;;;8.20;6.47;;;9.00;81.30;;;;;;4978534;28;20108;-88
2022/04/04 12:01:31;;;;;;;8.10;6.40;;;9.10;74.20;;;;;;4978899;28;20372;-86
2022/04/04 12:04:21;;;;;;;7.82;6.82;;;7.70;82.90;;;;;;4964556;28;20047;-86
2022/04/04 12:07:10;;;;;;;11.70;7.88;;;7.10;69.40;;;;;;4979880;28;20042;-88
2022/04/04 12:10:01;;;;;;;8.85;7.00;;;7.40;96.80;;;;;;4977095;28;20035;-86
2022/04/04 12:12:59;;;;;;;11.30;7.45;;;8.30;70.90;;;;;;4971901;28;20055;-85
2022/04/04 12:15:54;;;;;;;12.82;7.28;;;8.60;65.60;;;;;;4953775;28;20066;-83
2022/04/04 12:18:44;;;;;;;10.88;7.32;;;8.60;63.70;;;;;;4961806;28;20213;-86
2022/04/04 12:21:33;;;;;;;13.65;8.00;;;9.00;62.30;;;;;;4970072;28;20047;-83
2022/04/04 12:27:28;;;;;;;10.50;7.97;;;8.10;72.80;;;;;;4980909;28;20054;-87
2022/04/04 12:30:15;;;;;;;13.57;8.13;;;8.30;63.30;;;;;;4964276;28;20193;-88
2022/04/04 12:33:09;;;;;;;11.82;7.43;;;8.70;68.10;;;;;;4961582;28;20341;-91
2022/04/04 12:35:57;;;;;;;9.45;7.45;;;9.10;59.50;;;;;;4961228;28;20047;-85
2022/04/04 12:38:45;;;;;;;10.65;7.65;;;9.00;55.90;;;;;;4978087;28;20050;-87
2022/04/04 12:41:43;;;;;;;8.63;6.90;;;9.80;53.20;;;;;;4960452;28;20047;-86
2022/04/04 12:44:31;;;;;;;9.88;7.07;;;9.50;51.20;;;;;;4973677;28;20058;-88
2022/04/04 12:47:21;;;;;;;9.80;7.80;;;10.20;49.20;;;;;;4962833;28;20050;-86
2022/04/04 12:50:16;;;;;;;9.05;7.35;;;10.20;48.00;;;;;;4972536;28;20046;-87
2022/04/04 12:53:06;;;;;;;10.95;7.82;;;10.00;40.60;;;;;;4949011;28;20043;-84
2022/04/04 12:56:11;;;;;;;10.70;8.23;;;8.90;42.80;;;;;;4964642;28;20047;-82
2022/04/04 12:59:12;;;;;;;12.23;8.18;;;9.30;42.50;;;;;;4959332;28;20495;-83
2022/04/04 13:02:13;;;;;;;8.05;6.63;;;9.50;48.50;;;;;;4978649;28;20054;-87
2022/04/04 13:05:14;;;;;;;9.45;7.05;;;11.10;36.50;;;;;;4973318;28;20052;-86
2022/04/04 13:08:01;;;;;;;11.35;7.32;;;10.70;54.10;;;;;;4968503;28;20046;-83
2022/04/04 13:11:11;;;;;;;9.75;7.22;;;9.20;30.00;;;;;;4984118;28;20058;-84
2022/04/04 13:14:06;;;;;;;11.27;7.78;;;8.90;34.40;;;;;;4966218;28;20051;-89
2022/04/04 13:17:04;;;;;;;8.43;7.13;;;9.60;37.40;;;;;;4984107;28;20046;-86
2022/04/04 13:19:52;;;;;;;10.00;7.30;;;9.70;24.80;;;;;;4977663;28;20047;-87
2022/04/04 13:22:46;;;;;;;9.45;6.80;;;10.50;25.80;;;;;;4967595;28;20057;-86
2022/04/04 13:25:34;;;;;;;7.72;6.53;;;10.30;21.40;;;;;;4971704;28;20043;-89
2022/04/04 13:28:21;;;;;;;8.63;7.10;;;10.10;17.20;;;;;;4964345;28;20038;-85
2022/04/04 13:31:12;;;;;;;9.50;7.20;;;9.70;27.10;;;;;;4974968;28;20082;-89
2022/04/04 13:34:00;;;;;;;9.32;7.00;;;9.40;19.30;;;;;;4980675;28;20129;-86
2022/04/04 13:36:48;;;;;;;8.73;7.07;;;10.00;18.90;;;;;;4965088;28;20058;-88
2022/04/04 13:39:36;;;;;;;11.80;7.50;;;9.80;18.30;;;;;;4972929;28;20125;-85
2022/04/04 13:42:32;;;;;;;8.10;6.82;;;9.80;20.50;;;;;;4978171;28;20047;-88
2022/04/04 13:45:23;;;;;;;7.95;6.82;;;9.70;19.00;;;;;;4974558;28;20062;-88
2022/04/04 13:48:13;;;;;;;9.45;7.38;;;9.40;17.20;;;;;;4961002;28;20077;-85
2022/04/04 13:51:01;;;;;;;8.95;7.32;;;8.90;21.70;;;;;;4973354;28;20043;-84
2022/04/04 13:53:59;;;;;;;9.38;7.30;;;9.10;27.70;;;;;;4960296;28;20141;-81
2022/04/04 13:56:48;;;;;;;9.45;7.45;;;9.40;22.50;;;;;;4958308;28;20047;-86
2022/04/04 13:59:39;;;;;;;12.93;7.82;;;9.40;23.30;;;;;;4978689;28;20129;-85
2022/04/04 14:02:33;;;;;;;9.10;6.88;;;9.60;22.70;;;;;;4972029;28;20078;-87
2022/04/04 14:05:21;;;;;;;9.82;7.45;;;9.20;19.90;;;;;;4974295;28;20106;-87
2022/04/04 14:08:31;;;;;;;10.75;7.93;;;7.70;18.50;;;;;;4971840;28;20181;-87
2022/04/04 14:11:23;;;;;;;13.20;8.35;;;8.50;37.30;;;;;;4956884;28;20174;-88
2022/04/04 14:14:12;;;;;;;12.68;8.50;;;9.60;26.00;;;;;;4974778;28;20089;-87
2022/04/04 14:17:00;;;;;;;9.23;7.07;;;10.20;22.60;;;;;;4962884;28;20106;-85
2022/04/04 14:19:53;;;;;;;10.63;7.93;;;11.00;23.60;;;;;;4961884;28;20121;-86
2022/04/04 14:22:44;;;;;;;9.77;7.65;;;10.60;19.50;;;;;;4961549;28;20054;-87
2022/04/04 14:25:34;;;;;;;9.95;7.90;;;9.90;17.40;;;;;;4960203;28;20062;-85
2022/04/04 14:28:24;;;;;;;12.13;7.50;;;9.70;20.40;;;;;;4970629;28;20054;-87
2022/04/04 14:31:12;;;;;;;9.70;7.40;;;9.80;20.70;;;;;;4981830;28;20047;-84
2022/04/04 14:34:07;;;;;;;10.60;7.97;;;9.60;18.00;;;;;;4980721;28;20472;-88
2022/04/04 14:36:55;;;;;;;14.93;8.45;;;8.80;18.50;;;;;;4970456;28;20046;-84
2022/04/04 14:39:43;;;;;;;14.80;8.60;;;8.10;18.20;;;;;;4962112;28;20047;-84
2022/04/04 14:42:32;;;;;;;12.50;8.90;;;8.30;24.20;;;;;;4961241;28;20058;-84
2022/04/04 14:45:22;;;;;;;9.73;8.20;;;8.10;22.30;;;;;;4965474;28;20057;-86
2022/04/04 14:48:15;;;;;;;9.40;8.05;;;9.00;24.40;;;;;;4963075;28;20364;-85
2022/04/04 14:51:09;;;;;;;10.27;7.95;;;8.80;21.50;;;;;;4982742;28;20078;-86
2022/04/04 14:54:01;;;;;;;11.73;8.45;;;8.80;20.90;;;;;;4971303;28;20043;-88
2022/04/04 14:56:49;;;;;;;9.82;7.43;;;8.50;22.30;;;;;;4973238;28;20212;-84
2022/04/04 14:59:39;;;;;;;11.40;8.40;;;8.10;21.10;;;;;;4970738;28;20498;-86
2022/04/04 15:02:30;;;;;;;11.93;8.73;;;7.60;17.20;;;;;;4972124;28;20397;-85
2022/04/04 15:05:38;;;;;;;10.10;8.57;;;7.30;15.50;;;;;;4972729;28;20188;-88
2022/04/04 15:08:28;;;;;;;13.73;8.75;;;7.20;12.60;;;;;;4980686;28;20500;-87